Time;durP1;ratioP1;P1;durP2;ratioP2;P2;SDS_P1;SDS_P2;PMS_P1;PMS_P2;Temp;Humidity;BMP_temperature;BMP_pressure;BME280_temperature;BME280_humidity;BME280_pressure;Samples;Min_cycle;Max_cycle;Signal;HPM_P1;HPM_P2
2021/08/31 00:02:05;;;;;;;4.40;2.15;;;17.90;94.50;;;;;;5071567;28;20043;-52
2021/08/31 00:05:14;;;;;;;2.95;2.10;;;17.80;94.10;;;;;;5071647;28;20036;-52
2021/08/31 00:08:21;;;;;;;4.57;2.42;;;17.80;94.20;;;;;;5071134;28;20411;-52
2021/08/31 00:11:26;;;;;;;4.57;2.40;;;17.80;94.10;;;;;;5071503;28;20203;-55
2021/08/31 00:14:33;;;;;;;3.85;2.08;;;17.80;94.20;;;;;;5071405;28;20043;-56
2021/08/31 00:17:38;;;;;;;4.53;1.90;;;17.80;94.10;;;;;;5071566;28;20406;-55
2021/08/31 00:20:43;;;;;;;3.45;2.22;;;17.80;93.90;;;;;;5070140;28;20043;-55
2021/08/31 00:23:49;;;;;;;4.20;2.22;;;17.80;93.70;;;;;;5071066;28;20063;-54
2021/08/31 00:26:53;;;;;;;3.80;2.45;;;17.80;93.70;;;;;;5071091;28;20035;-51
2021/08/31 00:29:58;;;;;;;4.30;2.40;;;17.80;93.70;;;;;;5070936;28;20043;-53
2021/08/31 00:33:03;;;;;;;4.40;2.40;;;17.70;94.20;;;;;;5070941;28;20410;-55
2021/08/31 00:36:07;;;;;;;3.58;2.20;;;17.80;94.00;;;;;;5058740;28;20043;-52
2021/08/31 00:39:12;;;;;;;3.55;2.20;;;17.80;94.10;;;;;;5071187;28;20517;-57
2021/08/31 00:42:16;;;;;;;4.10;2.30;;;17.80;94.60;;;;;;5071223;28;20044;-56
2021/08/31 00:45:21;;;;;;;4.63;2.25;;;17.70;94.50;;;;;;5071012;28;20505;-52
2021/08/31 00:48:25;;;;;;;2.80;1.98;;;17.80;94.30;;;;;;5069777;28;20047;-54
2021/08/31 00:51:30;;;;;;;3.78;2.58;;;17.90;94.20;;;;;;5068233;28;20505;-53
2021/08/31 00:54:36;;;;;;;4.35;2.38;;;17.90;94.40;;;;;;5070620;28;20055;-52
2021/08/31 00:57:51;;;;;;;3.92;2.38;;;17.90;94.90;;;;;;5070674;28;20055;-56
2021/08/31 01:00:55;;;;;;;3.50;2.17;;;17.90;94.70;;;;;;5070562;28;20063;-53
2021/08/31 01:04:00;;;;;;;2.92;2.13;;;17.80;95.00;;;;;;5070678;28;20039;-55
2021/08/31 01:07:05;;;;;;;5.40;2.40;;;17.70;95.20;;;;;;5070551;28;20047;-56
2021/08/31 01:10:09;;;;;;;3.60;1.80;;;17.80;95.50;;;;;;5070104;28;20044;-52
2021/08/31 01:13:16;;;;;;;5.47;2.35;;;17.80;95.50;;;;;;5070590;28;20506;-51
2021/08/31 01:16:21;;;;;;;3.92;1.98;;;17.90;95.50;;;;;;5070478;28;20051;-55
2021/08/31 01:19:31;;;;;;;4.43;2.13;;;17.90;95.60;;;;;;5070342;28;20051;-53
2021/08/31 01:22:34;;;;;;;4.10;2.30;;;17.90;95.70;;;;;;5069817;28;20051;-54
2021/08/31 01:25:38;;;;;;;6.35;2.40;;;17.80;95.70;;;;;;5070460;28;20091;-53
2021/08/31 01:28:42;;;;;;;4.57;2.42;;;17.80;96.10;;;;;;5070109;28;20407;-53
2021/08/31 01:31:47;;;;;;;3.85;2.55;;;17.60;97.00;;;;;;5057237;28;20403;-54
2021/08/31 01:34:51;;;;;;;6.10;2.70;;;17.40;98.10;;;;;;5070174;28;20048;-53
2021/08/31 01:37:55;;;;;;;3.75;2.30;;;17.20;98.70;;;;;;5070284;28;20123;-54
2021/08/31 01:40:58;;;;;;;5.55;2.70;;;17.20;99.00;;;;;;5069826;28;20387;-55
2021/08/31 01:44:03;;;;;;;5.13;2.15;;;17.10;99.30;;;;;;5069975;28;20063;-52
2021/08/31 01:47:11;;;;;;;3.95;2.40;;;17.10;99.60;;;;;;5070064;28;20047;-53
2021/08/31 01:50:15;;;;;;;3.42;2.60;;;17.00;99.90;;;;;;5069772;28;20048;-55
2021/08/31 01:53:19;;;;;;;4.30;2.40;;;16.90;99.90;;;;;;5069761;28;20051;-56
2021/08/31 01:56:24;;;;;;;4.57;2.80;;;16.90;99.90;;;;;;5069575;28;20505;-52
2021/08/31 01:59:28;;;;;;;5.90;2.80;;;16.90;99.90;;;;;;5069192;28;20055;-55
2021/08/31 02:02:32;;;;;;;8.10;2.70;;;16.90;99.90;;;;;;5069257;28;20407;-56
2021/08/31 02:05:37;;;;;;;4.10;2.22;;;16.90;99.90;;;;;;5069585;28;20043;-54
2021/08/31 02:08:42;;;;;;;6.15;2.95;;;16.90;99.90;;;;;;5069568;28;20044;-51
2021/08/31 02:11:47;;;;;;;5.20;2.72;;;16.80;99.90;;;;;;5069260;28;20044;-55
2021/08/31 02:14:52;;;;;;;4.88;3.20;;;16.70;99.90;;;;;;5069400;28;20055;-54
2021/08/31 02:17:57;;;;;;;7.30;3.05;;;16.60;99.90;;;;;;5069203;28;20866;-53
2021/08/31 02:21:01;;;;;;;4.80;2.88;;;16.60;99.90;;;;;;5069008;28;20052;-56
2021/08/31 02:24:08;;;;;;;5.20;3.00;;;16.50;99.90;;;;;;5068586;28;20169;-53
2021/08/31 02:27:13;;;;;;;6.18;3.35;;;16.40;99.90;;;;;;5068378;28;20043;-52
2021/08/31 02:30:17;;;;;;;5.03;3.10;;;16.30;99.90;;;;;;5068909;28;20522;-52
2021/08/31 02:33:22;;;;;;;5.15;3.25;;;16.30;99.90;;;;;;5069087;28;20047;-55
2021/08/31 02:36:26;;;;;;;5.10;3.30;;;16.20;99.90;;;;;;5069367;28;20044;-54
2021/08/31 02:39:30;;;;;;;5.43;3.40;;;16.20;99.90;;;;;;5068897;28;20511;-51
2021/08/31 02:42:35;;;;;;;6.97;2.95;;;16.10;99.90;;;;;;5069237;28;20059;-51
2021/08/31 02:45:39;;;;;;;5.65;3.60;;;16.10;99.90;;;;;;5073070;28;20047;-51
2021/08/31 02:48:44;;;;;;;5.95;3.45;;;16.10;99.90;;;;;;5072997;28;20414;-51
2021/08/31 02:51:47;;;;;;;5.32;3.30;;;16.10;99.90;;;;;;5072691;28;20052;-50
2021/08/31 02:54:52;;;;;;;6.90;3.70;;;16.10;99.90;;;;;;5072766;28;20060;-55
2021/08/31 02:57:56;;;;;;;5.85;3.60;;;16.10;99.90;;;;;;5072731;28;20047;-51
2021/08/31 03:01:28;;;;;;;6.35;3.70;;;16.10;99.90;;;;;;5072524;28;20047;-55
2021/08/31 03:04:29;;;;;;;5.60;3.47;;;16.10;99.90;;;;;;5072517;28;20047;-50
2021/08/31 03:07:33;;;;;;;6.40;3.53;;;16.10;99.90;;;;;;5072745;28;20039;-52
2021/08/31 03:10:37;;;;;;;5.90;3.05;;;16.20;99.90;;;;;;5072421;28;20035;-55
2021/08/31 03:13:42;;;;;;;5.45;3.22;;;16.20;99.90;;;;;;5072765;28;20059;-56
2021/08/31 03:16:47;;;;;;;5.15;3.33;;;16.10;99.90;;;;;;5072527;28;20055;-56
2021/08/31 03:19:51;;;;;;;5.70;3.53;;;16.20;99.90;;;;;;5072720;28;20059;-51
2021/08/31 03:22:55;;;;;;;8.43;3.38;;;16.10;99.90;;;;;;5072752;28;20414;-51
2021/08/31 03:26:00;;;;;;;8.10;3.08;;;16.20;99.90;;;;;;5072963;28;20043;-55
2021/08/31 03:29:04;;;;;;;4.57;2.97;;;16.20;99.90;;;;;;5060551;28;20047;-56
2021/08/31 03:32:08;;;;;;;10.45;3.80;;;16.10;99.90;;;;;;5072481;28;20043;-53
2021/08/31 03:35:15;;;;;;;6.03;4.55;;;16.20;99.90;;;;;;5072994;28;20407;-54
2021/08/31 03:38:19;;;;;;;5.60;3.35;;;16.10;99.90;;;;;;5072637;28;20047;-56
2021/08/31 03:41:25;;;;;;;4.63;2.85;;;16.10;99.90;;;;;;5072103;28;20047;-54
2021/08/31 03:44:30;;;;;;;7.60;3.50;;;16.10;99.90;;;;;;5072168;28;20043;-53
2021/08/31 03:47:34;;;;;;;7.38;3.38;;;16.10;99.90;;;;;;5072439;28;20050;-55
2021/08/31 03:50:38;;;;;;;6.10;2.90;;;16.10;99.90;;;;;;5072228;28;20047;-54
2021/08/31 03:53:42;;;;;;;5.32;3.17;;;16.10;99.90;;;;;;5072088;28;20047;-54
2021/08/31 03:56:46;;;;;;;7.03;3.55;;;16.10;99.90;;;;;;5071137;28;20047;-56
2021/08/31 03:59:51;;;;;;;12.90;3.28;;;16.10;99.90;;;;;;5072381;28;20111;-53
2021/08/31 04:02:55;;;;;;;4.13;3.22;;;16.10;99.90;;;;;;5071463;28;20043;-50
2021/08/31 04:05:59;;;;;;;8.10;3.72;;;16.10;99.90;;;;;;5071847;28;20048;-53
2021/08/31 04:09:04;;;;;;;4.28;3.03;;;16.10;99.90;;;;;;5071471;28;20048;-56
2021/08/31 04:12:10;;;;;;;4.85;2.92;;;16.10;99.90;;;;;;5071185;28;20040;-51
2021/08/31 04:15:14;;;;;;;4.00;3.13;;;16.10;99.90;;;;;;5071296;28;20048;-52
2021/08/31 04:18:19;;;;;;;6.38;3.35;;;16.10;99.90;;;;;;5071296;28;20055;-52
2021/08/31 04:21:23;;;;;;;5.60;3.47;;;16.00;99.90;;;;;;5071017;28;20505;-53
2021/08/31 04:24:27;;;;;;;6.00;3.90;;;15.40;99.90;;;;;;5071292;28;20043;-53
2021/08/31 04:27:31;;;;;;;5.47;3.30;;;15.20;99.90;;;;;;5071127;28;20125;-53
2021/08/31 04:30:36;;;;;;;8.38;3.65;;;15.10;99.90;;;;;;5070489;28;20414;-53
2021/08/31 04:33:41;;;;;;;6.18;3.97;;;14.90;99.90;;;;;;5070983;28;20410;-53
2021/08/31 04:36:45;;;;;;;7.85;4.25;;;14.80;99.90;;;;;;5071084;28;20047;-53
2021/08/31 04:39:49;;;;;;;9.73;3.97;;;14.70;99.90;;;;;;5070883;28;20047;-54
2021/08/31 04:42:53;;;;;;;7.57;4.30;;;14.70;99.90;;;;;;5070372;28;20044;-55
2021/08/31 04:45:57;;;;;;;10.15;4.38;;;14.70;99.90;;;;;;5070541;28;20051;-54
2021/08/31 04:49:01;;;;;;;8.27;4.32;;;14.70;99.90;;;;;;5070651;28;20044;-51
2021/08/31 04:52:06;;;;;;;12.95;6.05;;;14.70;99.90;;;;;;5070296;28;20039;-51
2021/08/31 04:55:11;;;;;;;9.98;4.10;;;14.80;99.90;;;;;;5070679;28;20051;-54
2021/08/31 04:58:15;;;;;;;6.32;4.40;;;14.80;99.90;;;;;;5070523;28;20043;-52
2021/08/31 05:01:19;;;;;;;6.75;4.70;;;14.90;99.90;;;;;;5070333;28;20051;-53
2021/08/31 05:04:28;;;;;;;12.20;5.05;;;15.00;99.90;;;;;;5070513;28;20051;-52
2021/08/31 05:07:33;;;;;;;7.30;4.32;;;15.10;99.90;;;;;;5070384;28;20044;-53
2021/08/31 05:10:37;;;;;;;7.43;4.45;;;15.20;99.90;;;;;;5070302;28;20040;-51
2021/08/31 05:13:41;;;;;;;7.75;3.97;;;15.20;99.90;;;;;;5070112;28;20407;-51
2021/08/31 05:16:45;;;;;;;8.10;4.55;;;15.20;99.90;;;;;;5070414;28;20055;-52
2021/08/31 05:19:50;;;;;;;7.65;4.05;;;15.40;99.90;;;;;;5069831;28;20039;-52
2021/08/31 05:22:54;;;;;;;6.28;3.95;;;15.50;99.90;;;;;;5069934;28;20055;-55
2021/08/31 05:26:00;;;;;;;7.35;3.72;;;15.60;99.90;;;;;;5069917;28;20063;-51
2021/08/31 05:29:04;;;;;;;6.18;3.72;;;16.90;99.90;;;;;;5069979;28;20047;-54
2021/08/31 05:32:09;;;;;;;7.50;3.78;;;19.90;99.90;;;;;;5069484;28;20043;-55
2021/08/31 05:35:13;;;;;;;7.90;3.50;;;22.10;99.90;;;;;;5069980;28;20043;-50
2021/08/31 05:38:17;;;;;;;8.70;4.22;;;23.10;99.90;;;;;;5069955;28;20502;-55
2021/08/31 05:41:22;;;;;;;6.75;3.88;;;23.10;99.90;;;;;;5069414;28;20048;-56
2021/08/31 05:44:26;;;;;;;6.25;3.67;;;23.70;99.80;;;;;;5069573;28;20052;-56
2021/08/31 05:47:30;;;;;;;6.93;3.65;;;25.30;97.90;;;;;;5069892;28;20044;-55
2021/08/31 05:50:34;;;;;;;8.30;3.60;;;26.90;95.40;;;;;;5069629;28;20043;-54
2021/08/31 05:53:38;;;;;;;4.63;3.10;;;27.80;92.60;;;;;;5069350;28;20043;-51
2021/08/31 05:56:41;;;;;;;5.95;2.85;;;27.70;91.70;;;;;;5069630;28;20048;-51
2021/08/31 05:59:46;;;;;;;3.78;2.70;;;28.10;91.00;;;;;;5070001;28;20529;-55
2021/08/31 06:02:50;;;;;;;7.10;3.35;;;28.90;90.10;;;;;;5069235;28;20059;-51
2021/08/31 06:05:54;;;;;;;5.63;3.03;;;29.20;89.20;;;;;;5069667;28;20052;-56
2021/08/31 06:08:58;;;;;;;12.00;3.45;;;29.40;87.70;;;;;;5069038;28;20047;-52
2021/08/31 06:12:03;;;;;;;4.65;2.75;;;29.20;87.70;;;;;;5069483;28;20047;-53
2021/08/31 06:15:08;;;;;;;3.13;2.05;;;30.10;85.80;;;;;;5064249;28;20534;-52
2021/08/31 06:18:13;;;;;;;4.00;2.38;;;29.90;83.00;;;;;;5068822;28;20410;-55
2021/08/31 06:21:18;;;;;;;7.45;2.13;;;30.30;82.00;;;;;;5068254;28;20502;-52
2021/08/31 06:24:22;;;;;;;128.15;15.05;;;30.40;80.60;;;;;;5068571;28;20044;-53
2021/08/31 06:27:30;;;;;;;8.52;2.72;;;30.60;79.80;;;;;;5068747;28;20377;-53
2021/08/31 06:30:44;;;;;;;380.40;37.42;;;31.00;77.60;;;;;;5068820;28;20051;-54
2021/08/31 06:33:49;;;;;;;22.88;4.03;;;30.00;78.10;;;;;;5055434;28;20051;-50
2021/08/31 06:36:53;;;;;;;7.28;2.72;;;28.70;79.50;;;;;;5065761;28;20040;-54
2021/08/31 06:39:58;;;;;;;4.93;2.58;;;25.80;84.60;;;;;;5068341;28;20418;-51
2021/08/31 06:43:02;;;;;;;5.15;2.53;;;25.30;88.80;;;;;;5067915;28;20044;-54
2021/08/31 06:46:08;;;;;;;4.70;2.58;;;24.90;89.30;;;;;;5066811;28;20052;-56
2021/08/31 06:49:12;;;;;;;7.00;2.60;;;25.60;90.00;;;;;;5079495;28;20048;-51
2021/08/31 06:52:17;;;;;;;3.67;2.50;;;25.50;88.10;;;;;;5068558;28;20047;-51
2021/08/31 06:55:21;;;;;;;4.85;2.80;;;24.10;91.20;;;;;;5066873;28;20044;-51
2021/08/31 06:58:25;;;;;;;5.25;2.47;;;24.10;91.20;;;;;;5048906;28;20055;-53
2021/08/31 07:01:31;;;;;;;3.95;2.33;;;23.60;92.10;;;;;;5048715;28;20052;-51
2021/08/31 07:04:35;;;;;;;4.45;2.67;;;24.40;91.70;;;;;;5066727;28;20048;-50
2021/08/31 07:07:39;;;;;;;4.57;2.20;;;26.20;89.00;;;;;;5068913;28;20047;-53
2021/08/31 07:10:44;;;;;;;4.38;2.08;;;26.40;87.70;;;;;;5069285;28;20035;-55
2021/08/31 07:13:48;;;;;;;3.30;1.95;;;27.30;86.00;;;;;;5068378;28;20059;-51
2021/08/31 07:17:05;;;;;;;3.08;1.95;;;29.10;81.60;;;;;;5068789;28;20052;-51
2021/08/31 07:20:11;;;;;;;3.03;2.28;;;30.20;77.40;;;;;;5068217;28;20040;-53
2021/08/31 07:23:16;;;;;;;2.83;1.90;;;30.50;75.90;;;;;;5065574;28;20044;-53
2021/08/31 07:26:20;;;;;;;5.15;2.22;;;30.80;75.70;;;;;;5067804;28;20045;-52
2021/08/31 07:29:24;;;;;;;5.13;2.10;;;31.90;74.40;;;;;;5067889;28;20044;-49
2021/08/31 07:32:28;;;;;;;5.50;1.88;;;32.50;72.20;;;;;;5071468;28;20048;-52
2021/08/31 07:35:34;;;;;;;3.13;1.85;;;32.30;72.20;;;;;;5071913;28;20517;-50
2021/08/31 07:38:38;;;;;;;2.78;1.88;;;31.40;71.90;;;;;;5071862;28;20047;-53
2021/08/31 07:41:44;;;;;;;3.47;1.98;;;31.70;72.50;;;;;;5072060;28;20430;-53
2021/08/31 07:44:48;;;;;;;3.33;1.90;;;32.30;70.60;;;;;;5071271;28;20047;-53
2021/08/31 07:47:52;;;;;;;2.92;1.63;;;32.00;72.60;;;;;;5071903;28;20438;-52
2021/08/31 07:50:56;;;;;;;3.47;1.80;;;32.40;71.30;;;;;;5051767;28;20403;-52
2021/08/31 07:54:01;;;;;;;56.70;6.30;;;32.70;69.80;;;;;;5061189;28;20063;-53
2021/08/31 07:57:05;;;;;;;8.70;1.90;;;32.10;69.70;;;;;;5057411;28;20051;-52
2021/08/31 08:00:10;;;;;;;7.10;1.80;;;34.00;67.90;;;;;;5070882;28;20056;-51
2021/08/31 08:03:14;;;;;;;3.30;1.90;;;34.90;65.90;;;;;;5091464;28;20043;-54
2021/08/31 08:06:18;;;;;;;153.50;17.73;;;34.50;64.60;;;;;;5084153;28;20035;-53
2021/08/31 08:09:22;;;;;;;2.80;1.52;;;34.40;66.80;;;;;;5071777;28;20043;-55
2021/08/31 08:12:27;;;;;;;2.80;1.50;;;34.70;65.40;;;;;;5071670;28;20044;-54
2021/08/31 08:15:31;;;;;;;3.67;1.65;;;34.10;65.40;;;;;;5071486;28;20051;-50
2021/08/31 08:18:36;;;;;;;2.50;1.55;;;30.60;68.60;;;;;;5051840;28;20048;-53
2021/08/31 08:21:41;;;;;;;86.55;11.35;;;30.50;69.60;;;;;;5051374;28;20056;-53
2021/08/31 08:24:46;;;;;;;2.58;1.80;;;32.50;69.40;;;;;;5051267;28;20100;-53
2021/08/31 08:27:50;;;;;;;3.72;1.60;;;35.00;66.60;;;;;;5065269;28;20528;-54
2021/08/31 08:30:55;;;;;;;5.20;1.48;;;35.00;64.90;;;;;;5071436;28;20048;-56
2021/08/31 08:34:01;;;;;;;2.80;1.55;;;35.60;63.80;;;;;;5071522;28;20051;-53
2021/08/31 08:37:07;;;;;;;2.92;1.52;;;36.90;62.30;;;;;;5071207;28;20048;-53
2021/08/31 08:40:11;;;;;;;2.33;1.45;;;37.40;61.50;;;;;;5058948;28;20052;-51
2021/08/31 08:43:16;;;;;;;2.28;1.30;;;38.20;61.00;;;;;;5071491;28;20047;-52
2021/08/31 08:46:21;;;;;;;4.72;1.65;;;37.10;61.60;;;;;;5082659;28;20047;-51
2021/08/31 08:49:26;;;;;;;2.38;1.58;;;37.40;61.10;;;;;;5070690;28;20414;-52
2021/08/31 08:52:30;;;;;;;2.22;1.50;;;36.90;59.50;;;;;;5063401;28;20119;-53
2021/08/31 08:55:35;;;;;;;6.70;1.23;;;37.30;60.30;;;;;;5051978;28;20051;-53
2021/08/31 08:58:39;;;;;;;33.22;5.00;;;39.50;59.00;;;;;;5070770;28;20059;-55
2021/08/31 09:01:48;;;;;;;20.92;3.38;;;40.50;58.50;;;;;;5068088;28;20051;-52
2021/08/31 09:04:52;;;;;;;1.98;1.00;;;41.70;57.40;;;;;;5070087;28;20059;-58
2021/08/31 09:08:07;;;;;;;1.63;1.00;;;42.60;55.20;;;;;;5070073;28;20557;-53
2021/08/31 09:11:24;;;;;;;3.53;1.33;;;42.70;53.90;;;;;;5069550;28;20103;-55
2021/08/31 09:14:32;;;;;;;2.70;1.08;;;43.10;54.00;;;;;;5068711;28;20047;-57
2021/08/31 09:17:38;;;;;;;2.53;1.75;;;43.70;53.90;;;;;;5070564;28;20138;-54
2021/08/31 09:20:54;;;;;;;1.63;1.00;;;43.50;52.80;;;;;;5050280;28;20044;-55
2021/08/31 09:24:00;;;;;;;2.42;1.85;;;42.60;53.00;;;;;;5050260;28;20052;-53
2021/08/31 09:27:05;;;;;;;2.22;1.20;;;43.40;52.60;;;;;;5061982;28;20043;-52
2021/08/31 09:30:26;;;;;;;4.03;1.20;;;42.30;52.20;;;;;;5069290;28;20046;-55
2021/08/31 09:33:36;;;;;;;1.10;0.85;;;43.30;51.90;;;;;;5067904;28;20036;-57
2021/08/31 09:36:40;;;;;;;2.28;0.95;;;44.10;51.50;;;;;;5058776;28;20040;-54
2021/08/31 09:39:44;;;;;;;1.23;1.00;;;45.50;50.90;;;;;;5069429;28;20416;-55
2021/08/31 09:43:04;;;;;;;10.93;1.80;;;46.40;49.50;;;;;;5068902;28;20039;-56
2021/08/31 09:46:10;;;;;;;3.85;1.30;;;47.00;48.60;;;;;;5069360;28;20047;-57
2021/08/31 09:49:19;;;;;;;6.60;1.25;;;46.50;48.80;;;;;;5069646;28;20047;-53
2021/08/31 09:52:24;;;;;;;145.50;13.90;;;47.00;48.50;;;;;;5068377;28;20051;-54
2021/08/31 09:55:28;;;;;;;7.10;1.40;;;47.20;48.50;;;;;;5069262;28;20119;-56
2021/08/31 09:58:34;;;;;;;9.50;1.65;;;47.90;48.20;;;;;;5069538;28;20406;-55
2021/08/31 10:01:38;;;;;;;4.40;1.27;;;48.60;47.50;;;;;;5067678;28;20059;-56
2021/08/31 10:04:42;;;;;;;3.05;1.00;;;48.60;47.40;;;;;;5068500;28;20218;-53
2021/08/31 10:07:46;;;;;;;3.13;1.00;;;48.10;47.10;;;;;;5048409;28;20044;-53
2021/08/31 10:10:54;;;;;;;2.13;1.02;;;47.20;47.90;;;;;;5048921;28;20510;-53
2021/08/31 10:14:00;;;;;;;1.52;1.10;;;46.70;47.30;;;;;;5057063;28;20039;-51
2021/08/31 10:17:11;;;;;;;2.08;1.10;;;47.50;47.70;;;;;;5061062;28;20040;-52
2021/08/31 10:20:23;;;;;;;2.22;1.10;;;48.30;46.60;;;;;;5069349;28;20043;-57
2021/08/31 10:23:37;;;;;;;6.50;1.20;;;48.30;45.80;;;;;;5069599;28;20509;-56
2021/08/31 10:26:42;;;;;;;3.75;1.17;;;48.30;45.80;;;;;;5069438;28;20051;-56
2021/08/31 10:29:46;;;;;;;1.92;1.10;;;47.40;45.80;;;;;;5069025;28;20055;-51
2021/08/31 10:32:59;;;;;;;1.30;0.80;;;47.30;46.10;;;;;;5069484;28;20043;-55
2021/08/31 10:36:06;;;;;;;1.40;0.98;;;48.20;45.60;;;;;;5068509;28;20040;-51
2021/08/31 10:39:11;;;;;;;6.60;1.10;;;48.60;44.90;;;;;;5068777;28;20039;-54
2021/08/31 10:42:24;;;;;;;2.80;1.25;;;43.10;45.60;;;;;;5068462;28;20043;-54
2021/08/31 10:45:33;;;;;;;2.60;1.20;;;41.30;48.40;;;;;;5066227;28;20042;-54
2021/08/31 10:48:38;;;;;;;3.25;1.20;;;44.20;47.90;;;;;;5068514;28;20040;-57
2021/08/31 10:52:05;;;;;;;4.30;1.15;;;40.40;47.30;;;;;;5067394;28;20039;-54
2021/08/31 10:55:33;;;;;;;4.88;1.13;;;39.90;50.30;;;;;;5058258;28;20502;-51
2021/08/31 10:58:47;;;;;;;3.55;1.08;;;42.30;49.60;;;;;;5069076;28;20048;-55
2021/08/31 11:01:51;;;;;;;1.73;1.02;;;44.10;47.30;;;;;;5068870;28;20063;-56
2021/08/31 11:05:20;;;;;;;2.22;1.40;;;46.00;46.40;;;;;;5070495;28;20048;-51
2021/08/31 11:08:24;;;;;;;;;;;45.80;46.50;;;;;;5072667;28;20114;-55
2021/08/31 11:11:28;;;;;;;;;;;45.90;47.10;;;;;;5072887;28;19943;-56
2021/08/31 11:14:39;;;;;;;;;;;45.80;46.30;;;;;;5073035;28;20389;-53
2021/08/31 11:17:46;;;;;;;;;;;46.50;46.30;;;;;;5072663;28;19959;-54
2021/08/31 11:20:50;;;;;;;;;;;43.40;46.10;;;;;;5072984;28;19916;-53
2021/08/31 11:24:04;;;;;;;;;;;41.70;48.50;;;;;;5072875;28;20290;-55
2021/08/31 11:27:09;;;;;;;;;;;42.30;48.60;;;;;;5072617;28;19926;-54
2021/08/31 11:30:12;;;;;;;;;;;43.10;47.30;;;;;;5072910;28;20070;-50
2021/08/31 11:33:39;;;;;;;;;;;44.80;46.50;;;;;;5072930;28;19919;-50
2021/08/31 11:36:43;;;;;;;;;;;43.50;45.00;;;;;;5073849;28;20294;-53
2021/08/31 11:39:56;;;;;;;;;;;37.90;48.70;;;;;;5073572;28;19923;-53
2021/08/31 11:42:59;;;;;;;;;;;41.20;48.00;;;;;;5072314;28;20366;-53
2021/08/31 11:46:04;;;;;;;;;;;44.20;46.30;;;;;;5072483;28;19923;-56
2021/08/31 11:49:27;;;;;;;;;;;45.90;45.00;;;;;;5072303;28;20405;-54
2021/08/31 11:52:31;;;;;;;;;;;46.20;44.50;;;;;;5066538;28;20412;-55
2021/08/31 11:55:36;;;;;;;;;;;41.30;44.60;;;;;;5072410;28;19916;-54
2021/08/31 11:58:41;;;;;;;;;;;35.10;52.30;;;;;;5071579;28;19915;-52
2021/08/31 12:01:45;;;;;;;;;;;35.30;52.00;;;;;;5071985;28;19923;-55
2021/08/31 12:04:58;;;;;;;;;;;36.00;50.20;;;;;;5072296;28;19919;-53
2021/08/31 12:08:04;;;;;;;;;;;37.00;49.70;;;;;;5071788;28;19924;-54
2021/08/31 12:11:09;;;;;;;;;;;39.50;48.90;;;;;;5071875;28;19915;-57
2021/08/31 12:14:15;;;;;;;;;;;41.90;47.60;;;;;;5072064;28;19916;-50
2021/08/31 12:17:36;;;;;;;;;;;43.70;46.10;;;;;;5070652;28;19912;-55
2021/08/31 12:20:41;;;;;;;;;;;44.50;45.50;;;;;;5071253;28;19915;-54
2021/08/31 12:23:46;;;;;;;;;;;45.50;44.90;;;;;;5071921;28;19915;-58
2021/08/31 12:26:50;;;;;;;;;;;45.60;44.10;;;;;;5071129;28;19919;-52
2021/08/31 12:29:56;;;;;;;;;;;44.30;44.90;;;;;;5071836;28;20397;-52
2021/08/31 12:33:00;;;;;;;;;;;41.60;46.60;;;;;;5071421;28;19927;-52
2021/08/31 12:36:05;;;;;;;;;;;38.90;47.40;;;;;;5071963;28;19909;-53
2021/08/31 12:39:22;;;;;;;;;;;38.10;49.50;;;;;;5071279;28;19915;-55
2021/08/31 12:42:26;;;;;;;;;;;39.50;49.00;;;;;;5071595;28;19908;-54
2021/08/31 12:45:33;;;;;;;;;;;42.00;47.20;;;;;;5071025;28;20398;-53
2021/08/31 12:48:45;;;;;;;;;;;43.30;46.20;;;;;;5070063;28;19908;-53
2021/08/31 12:51:51;;;;;;;;;;;43.00;45.80;;;;;;5068585;28;19935;-56
2021/08/31 12:55:12;;;;;;;;;;;42.00;46.60;;;;;;5071341;28;19920;-55
2021/08/31 12:58:44;;;;;;;;;;;42.90;46.30;;;;;;5070452;28;20440;-52
2021/08/31 13:01:52;;;;;;;;;;;44.50;45.50;;;;;;5070951;28;19919;-56
2021/08/31 13:05:09;;;;;;;;;;;43.20;45.50;;;;;;5071396;28;20393;-55
2021/08/31 13:08:14;;;;;;;;;;;41.60;46.10;;;;;;5070897;28;19915;-52
2021/08/31 13:11:18;;;;;;;;;;;39.50;47.90;;;;;;5071044;28;19919;-52
2021/08/31 13:14:23;;;;;;;;;;;38.90;47.90;;;;;;5071185;28;19916;-55
2021/08/31 13:17:28;;;;;;;;;;;37.50;49.30;;;;;;5071223;28;19915;-52
2021/08/31 13:20:32;;;;;;;;;;;35.80;51.70;;;;;;5070531;28;19920;-53
2021/08/31 13:23:38;;;;;;;;;;;37.10;50.80;;;;;;5071916;28;19932;-54
2021/08/31 13:26:42;;;;;;;;;;;39.50;49.00;;;;;;5050551;28;19919;-52
2021/08/31 13:29:48;;;;;;;;;;;38.40;47.90;;;;;;5070177;28;20561;-55
2021/08/31 13:32:52;;;;;;;;;;;38.40;49.10;;;;;;5069266;28;20322;-55
2021/08/31 13:35:56;;;;;;;;;;;37.50;49.40;;;;;;5067651;28;19990;-56
2021/08/31 13:39:00;;;;;;;;;;;36.60;49.70;;;;;;5068985;28;20008;-54
2021/08/31 13:42:04;;;;;;;;;;;33.90;52.60;;;;;;5069650;28;19986;-54
2021/08/31 13:45:08;;;;;;;;;;;33.20;54.40;;;;;;5068603;28;20611;-52
2021/08/31 13:48:13;;;;;;;;;;;33.20;54.20;;;;;;5070155;28;20626;-54
2021/08/31 13:51:19;;;;;;;;;;;32.10;54.00;;;;;;5069079;28;20389;-52
2021/08/31 13:54:23;;;;;;;;;;;31.30;55.80;;;;;;5069255;28;19920;-56
2021/08/31 13:57:30;;;;;;;;;;;30.30;57.80;;;;;;5069078;28;20406;-51
2021/08/31 14:00:35;;;;;;;;;;;29.30;57.90;;;;;;5054142;28;19915;-55
2021/08/31 14:03:39;;;;;;;;;;;29.20;58.70;;;;;;5067054;28;19913;-54
2021/08/31 14:06:43;;;;;;;;;;;29.30;58.60;;;;;;5069163;28;19924;-51
2021/08/31 14:09:51;;;;;;;;;;;29.70;57.90;;;;;;5050482;28;20401;-51
2021/08/31 14:12:57;;;;;;;;;;;30.10;57.60;;;;;;5063028;28;20295;-51
2021/08/31 14:16:01;;;;;;;;;;;30.30;57.50;;;;;;5063724;28;19931;-55
2021/08/31 14:19:05;;;;;;;;;;;30.50;58.70;;;;;;5068663;28;19919;-57
2021/08/31 14:22:10;;;;;;;;;;;29.10;63.40;;;;;;5069172;28;20476;-51
2021/08/31 14:25:14;;;;;;;;;;;27.70;66.70;;;;;;5055997;28;19927;-52
2021/08/31 14:28:18;;;;;;;;;;;27.40;69.30;;;;;;5057781;28;19920;-51
2021/08/31 14:31:22;;;;;;;;;;;26.50;73.10;;;;;;5049691;28;19916;-51
2021/08/31 14:34:26;;;;;;;;;;;25.90;76.10;;;;;;5059318;28;19923;-51
2021/08/31 14:37:30;;;;;;;;;;;26.10;77.80;;;;;;5069821;28;20025;-51
2021/08/31 14:40:34;;;;;;;;;;;26.00;77.80;;;;;;5071625;28;19908;-51
2021/08/31 14:43:39;;;;;;;;;;;25.80;77.90;;;;;;5072495;28;19915;-53
2021/08/31 14:46:43;;;;;;;;;;;25.90;84.40;;;;;;5071243;28;20297;-53
2021/08/31 14:49:50;;;;;;;;;;;25.90;88.50;;;;;;5072724;28;19923;-53
2021/08/31 14:52:56;;;;;;;;;;;25.70;89.20;;;;;;5062264;28;19931;-53
2021/08/31 14:56:00;;;;;;;;;;;25.60;92.90;;;;;;5064890;28;19919;-54
2021/08/31 14:59:04;;;;;;;;;;;25.60;91.70;;;;;;5072932;28;19932;-53
2021/08/31 15:02:08;;;;;;;;;;;25.70;95.70;;;;;;5073236;28;19915;-53
2021/08/31 15:05:12;;;;;;;;;;;25.50;99.00;;;;;;5060377;28;19920;-57
2021/08/31 15:08:17;;;;;;;;;;;25.30;99.90;;;;;;5072867;28;19919;-55
2021/08/31 15:11:21;;;;;;;;;;;24.90;99.90;;;;;;5072740;28;19915;-53
2021/08/31 15:14:25;;;;;;;;;;;24.70;99.90;;;;;;5056847;28;19915;-53
2021/08/31 15:17:29;;;;;;;;;;;24.80;99.90;;;;;;5069924;28;19923;-55
2021/08/31 15:20:33;;;;;;;;;;;24.80;99.90;;;;;;5065637;28;19908;-58
2021/08/31 15:23:39;;;;;;;;;;;24.90;99.90;;;;;;5072616;28;19916;-55
2021/08/31 15:26:43;;;;;;;;;;;25.10;99.90;;;;;;5073104;28;19928;-56
2021/08/31 15:29:48;;;;;;;;;;;25.30;99.90;;;;;;5080564;28;19927;-57
2021/08/31 15:32:53;;;;;;;;;;;25.40;99.90;;;;;;5088188;28;19909;-53
2021/08/31 15:35:57;;;;;;;;;;;25.20;99.90;;;;;;5033715;28;19915;-56
2021/08/31 15:39:02;;;;;;;;;;;25.00;99.90;;;;;;5059204;28;19920;-55
2021/08/31 15:42:06;;;;;;;;;;;24.60;99.90;;;;;;5058096;28;19935;-56
2021/08/31 15:45:10;;;;;;;;;;;24.30;99.90;;;;;;5056449;28;19932;-56
2021/08/31 15:48:14;;;;;;;;;;;24.00;99.90;;;;;;5070634;28;19908;-53
2021/08/31 15:51:18;;;;;;;;;;;23.90;99.90;;;;;;5070580;28;19919;-51
2021/08/31 15:54:22;;;;;;;;;;;24.00;99.90;;;;;;5072047;28;20301;-52
2021/08/31 15:57:26;;;;;;;;;;;23.90;99.90;;;;;;5071427;28;20294;-51
2021/08/31 16:00:31;;;;;;;;;;;23.90;99.90;;;;;;5068700;28;19917;-52
2021/08/31 16:03:35;;;;;;;;;;;23.70;99.90;;;;;;5057925;28;19935;-54
2021/08/31 16:06:41;;;;;;;;;;;23.60;99.90;;;;;;5074970;28;20303;-54
2021/08/31 16:09:46;;;;;;;;;;;23.30;99.90;;;;;;5071759;28;19931;-52
2021/08/31 16:12:50;;;;;;;;;;;23.20;99.90;;;;;;5071998;28;19916;-53
2021/08/31 16:15:54;;;;;;;;;;;23.20;99.90;;;;;;5067314;28;19915;-53
2021/08/31 16:18:58;;;;;;;;;;;23.30;99.90;;;;;;5071401;28;19923;-59
2021/08/31 16:22:03;;;;;;;;;;;23.40;99.90;;;;;;5071106;28;19932;-54
2021/08/31 16:25:07;;;;;;;;;;;23.50;99.90;;;;;;5043473;28;19935;-51
2021/08/31 16:28:11;;;;;;;;;;;23.60;99.90;;;;;;5071748;28;20286;-54
2021/08/31 16:31:15;;;;;;;;;;;23.70;99.90;;;;;;5050703;28;19909;-53
2021/08/31 16:34:19;;;;;;;;;;;23.70;99.90;;;;;;5051503;28;20394;-53
2021/08/31 16:37:25;;;;;;;;;;;23.50;99.90;;;;;;5067121;28;19920;-53
2021/08/31 16:40:31;;;;;;;;;;;23.40;99.90;;;;;;5070724;28;20295;-55
2021/08/31 16:43:37;;;;;;;;;;;23.30;99.90;;;;;;5071121;28;20294;-58